EDHK

Kiel-Holtenau Airport

Kiel, Germany
METAR EDHK 151420Z 25011KT 9999 SCT033 23/14 Q1016
Observed Flight Rules
Aug-15 @ 14:20 UTC (40 minutes ago) Visual Flight Rules
Wind Visibility Clouds
250° at 11 knots 10,000+ meters
  • Scattered at 3,300' AGL
Temperatures Readings
Current 23°C / 73°F
Dewpoint 14°C / 57°F
Humidity 57%
Altimeter 30" Hg
Pressure 1016 hPa
Elevation 31
METAR EDHK 151420Z 25011KT 9999 SCT033 23/14 Q1016
Observed Flight Rules
Aug-15 @ 14:20 UTC
(40 minutes ago)
VFR
Wind Visibility
250° at 11 knots 10,000+ meters
Clouds
  • Scattered at 3,300' AGL
Temperature Dewpoint
23°C / 73°F 14°C / 57°F
Humidity Altimeter Pressure
57% 30" Hg 1016 hPa